Time;durP1;ratioP1;P1;durP2;ratioP2;P2;SDS_P1;SDS_P2;PMS_P1;PMS_P2;Temp;Humidity;BMP_temperature;BMP_pressure;BME280_temperature;BME280_humidity;BME280_pressure;Samples;Min_cycle;Max_cycle;Signal;HPM_P1;HPM_P2
2023/10/24 00:03:55;;;;;;;;;;;14.00;58.70;;;12.84;60.54;100769.81;12256457;19;19915;-83
2023/10/24 00:07:57;;;;;;;;;;;14.00;58.70;;;12.91;60.40;100780.78;12255318;19;19915;-83
2023/10/24 00:11:59;;;;;;;;;;;14.00;58.70;;;12.87;60.33;100755.69;12263359;19;19915;-83
2023/10/24 00:16:01;;;;;;;;;;;14.00;58.60;;;12.89;60.46;100758.22;12260128;19;19922;-83
2023/10/24 00:20:03;;;;;;;;;;;14.00;58.60;;;12.92;60.39;100758.00;12256100;19;19941;-83
2023/10/24 00:24:05;;;;;;;;;;;14.00;58.60;;;12.84;60.49;100742.78;12261117;19;19937;-83
2023/10/24 00:28:07;;;;;;;;;;;14.00;58.80;;;12.82;60.36;100740.25;12258000;19;20413;-83
2023/10/24 00:32:11;;;;;;;;;;;14.00;58.70;;;12.89;60.52;100737.25;12259222;19;19962;-83
2023/10/24 00:36:12;;;;;;;;;;;14.10;58.70;;;12.91;60.48;100730.09;12260493;19;19966;-84
2023/10/24 00:40:14;;;;;;;;;;;14.10;58.60;;;12.90;60.56;100724.03;12257335;19;19919;-83
2023/10/24 00:44:15;;;;;;;;;;;14.10;58.80;;;12.90;60.52;100710.09;12257832;19;19918;-83
2023/10/24 00:48:17;;;;;;;;;;;14.00;58.70;;;12.92;60.48;100708.22;12253588;19;19923;-83
2023/10/24 00:52:20;;;;;;;;;;;14.10;58.80;;;12.95;60.55;100708.84;12256724;19;19932;-83
2023/10/24 00:56:22;;;;;;;;;;;14.10;58.80;;;12.89;60.43;100684.81;12257677;19;19923;-83
2023/10/24 01:00:25;;;;;;;;;;;14.10;58.90;;;12.89;60.59;100679.59;12255397;19;19982;-83
2023/10/24 01:04:27;;;;;;;;;;;14.10;58.90;;;12.94;60.55;100667.03;12258397;19;19921;-83
2023/10/24 01:08:28;;;;;;;;;;;14.10;58.90;;;12.90;60.57;100665.53;12255474;19;19915;-82
2023/10/24 01:12:31;;;;;;;;;;;14.10;58.90;;;12.86;60.57;100658.81;12256772;19;19926;-84
2023/10/24 01:16:34;;;;;;;;;;;14.10;58.90;;;12.70;60.67;100633.63;12256926;19;19990;-83
2023/10/24 01:20:39;;;;;;;;;;;14.10;59.20;;;12.97;60.73;100666.81;12257517;19;19928;-83
2023/10/24 01:24:42;;;;;;;;;;;14.10;59.10;;;12.72;60.59;100637.00;12271622;19;19923;-83
2023/10/24 01:28:43;;;;;;;;;;;14.10;59.40;;;12.94;60.73;100651.31;12263665;19;20325;-82
2023/10/24 01:32:45;;;;;;;;;;;14.10;59.20;;;13.00;60.65;100664.00;12266628;19;20251;-83
2023/10/24 01:36:47;;;;;;;;;;;14.20;59.30;;;12.95;60.72;100642.47;12267944;19;20262;-83
2023/10/24 01:40:48;;;;;;;;;;;14.20;59.30;;;13.02;60.75;100638.53;12265278;19;19919;-83
2023/10/24 01:44:50;;;;;;;;;;;14.20;59.30;;;13.12;60.70;100650.03;12271801;19;19911;-84
2023/10/24 01:48:53;;;;;;;;;;;14.30;59.40;;;13.07;60.70;100641.69;12266638;19;19975;-83
2023/10/24 01:52:56;;;;;;;;;;;14.30;59.40;;;13.13;60.80;100641.25;12270179;19;20364;-82
2023/10/24 01:56:58;;;;;;;;;;;14.30;59.30;;;13.01;60.70;100614.06;12272113;19;19950;-83
2023/10/24 02:00:59;;;;;;;;;;;14.30;59.30;;;13.15;60.82;100614.91;12266725;19;20342;-83
2023/10/24 02:05:01;;;;;;;;;;;14.30;59.20;;;13.17;60.85;100613.88;12270434;19;19919;-83
2023/10/24 02:09:03;;;;;;;;;;;14.30;59.80;;;13.15;60.77;100592.19;12269780;19;19995;-83
2023/10/24 02:13:05;;;;;;;;;;;14.30;59.60;;;13.19;60.91;100593.63;12272810;19;19925;-83
2023/10/24 02:17:07;;;;;;;;;;;14.30;60.20;;;13.19;60.85;100598.03;12271023;19;19922;-83
2023/10/24 02:21:08;;;;;;;;;;;14.40;60.00;;;13.24;60.99;100603.81;12268143;19;19919;-83
2023/10/24 02:25:10;;;;;;;;;;;14.40;60.10;;;13.27;60.93;100596.59;12273956;19;19932;-83
2023/10/24 02:29:11;;;;;;;;;;;14.40;61.30;;;12.94;61.01;100546.47;12271240;19;19923;-83
2023/10/24 02:33:13;;;;;;;;;;;14.40;60.40;;;13.33;61.06;100610.25;12273731;19;19918;-83
2023/10/24 02:37:15;;;;;;;;;;;14.40;60.20;;;13.33;60.89;100600.59;12271345;19;19915;-83
2023/10/24 02:41:18;;;;;;;;;;;14.50;60.10;;;13.38;60.93;100598.50;12270631;19;20342;-83
2023/10/24 02:45:19;;;;;;;;;;;14.50;60.00;;;13.42;60.99;100593.88;12274763;19;19919;-83
2023/10/24 02:49:21;;;;;;;;;;;14.60;60.00;;;13.33;61.04;100584.84;12267073;19;19930;-84
2023/10/24 02:53:24;;;;;;;;;;;14.60;59.80;;;13.51;61.04;100614.22;12264388;19;19947;-83
2023/10/24 02:57:25;;;;;;;;;;;14.60;59.80;;;13.45;60.98;100604.16;12271455;19;19950;-83
2023/10/24 03:01:27;;;;;;;;;;;14.70;59.70;;;13.51;60.93;100608.97;12269301;19;19913;-83
2023/10/24 03:05:29;;;;;;;;;;;14.70;59.70;;;13.50;60.93;100594.16;12269790;19;19923;-83
2023/10/24 03:09:31;;;;;;;;;;;14.70;59.60;;;13.58;61.11;100610.22;12269391;19;19919;-83
2023/10/24 03:13:32;;;;;;;;;;;14.70;59.50;;;13.61;61.04;100607.41;12271553;19;19930;-84
2023/10/24 03:17:34;;;;;;;;;;;14.80;59.60;;;13.40;60.96;100565.13;12274591;19;20325;-83
2023/10/24 03:21:37;;;;;;;;;;;14.80;59.60;;;13.60;61.05;100597.84;12270838;19;19919;-83
2023/10/24 03:25:42;;;;;;;;;;;14.80;59.60;;;13.60;61.08;100603.09;12273562;19;19923;-83
2023/10/24 03:29:46;;;;;;;;;;;14.80;59.50;;;13.65;61.03;100595.72;12266065;19;19934;-83
2023/10/24 03:33:48;;;;;;;;;;;14.80;59.60;;;13.65;61.05;100587.03;12268415;19;19919;-83
2023/10/24 03:37:50;;;;;;;;;;;14.80;59.70;;;13.63;60.96;100587.13;12268985;19;20353;-83
2023/10/24 03:41:52;;;;;;;;;;;14.80;59.70;;;13.65;61.09;100585.22;12267886;19;19921;-83
2023/10/24 03:45:53;;;;;;;;;;;14.80;59.70;;;13.69;61.05;100583.22;12264853;19;19926;-83
2023/10/24 03:49:55;;;;;;;;;;;14.80;59.70;;;13.65;61.12;100573.91;12267826;19;20025;-83
2023/10/24 03:53:57;;;;;;;;;;;14.80;59.60;;;13.69;60.97;100578.84;12271799;19;19911;-83
2023/10/24 03:57:59;;;;;;;;;;;14.80;59.60;;;13.73;61.02;100550.56;12270189;19;19922;-83
2023/10/24 04:02:00;;;;;;;;;;;14.90;59.70;;;13.58;60.98;100533.28;12270581;19;19907;-84
2023/10/24 04:06:02;;;;;;;;;;;14.90;59.70;;;13.62;61.05;100548.72;12268515;19;19911;-83
2023/10/24 04:10:04;;;;;;;;;;;14.90;59.60;;;13.72;61.14;100562.88;12267347;19;19940;-83
2023/10/24 04:14:06;;;;;;;;;;;14.90;59.50;;;13.62;61.12;100526.91;12265608;19;19924;-83
2023/10/24 04:18:08;;;;;;;;;;;14.90;59.60;;;13.75;61.02;100540.00;12265985;19;19911;-83
2023/10/24 04:22:09;;;;;;;;;;;14.90;59.60;;;13.78;61.08;100540.59;12269018;19;19922;-83
2023/10/24 04:26:11;;;;;;;;;;;14.90;59.40;;;13.68;61.10;100518.56;12272306;19;19983;-83
2023/10/24 04:30:13;;;;;;;;;;;14.90;59.40;;;13.72;61.14;100528.75;12266087;19;19918;-83
2023/10/24 04:34:14;;;;;;;;;;;14.90;59.40;;;13.72;61.06;100533.16;12258464;19;20356;-83
2023/10/24 04:38:17;;;;;;;;;;;14.90;59.60;;;13.67;61.09;100515.13;12267934;19;20329;-83
2023/10/24 04:42:18;;;;;;;;;;;14.90;59.70;;;13.69;61.06;100504.50;12263948;19;19915;-83
2023/10/24 04:46:20;;;;;;;;;;;14.80;59.90;;;13.66;61.15;100474.09;12260272;19;19919;-82
2023/10/24 04:50:22;;;;;;;;;;;14.90;59.80;;;13.73;61.21;100498.09;12260498;19;19982;-82
2023/10/24 04:54:23;;;;;;;;;;;14.80;59.60;;;13.63;61.14;100487.41;12280227;19;20395;-82
2023/10/24 04:58:25;;;;;;;;;;;14.80;59.50;;;13.72;61.10;100496.44;12284780;19;19918;-84
2023/10/24 05:02:27;;;;;;;;;;;14.80;59.70;;;13.73;61.26;100503.34;12282981;19;20533;-82
2023/10/24 05:06:28;;;;;;;;;;;14.90;59.70;;;13.73;61.22;100513.84;12279265;19;19918;-83
2023/10/24 05:10:30;;;;;;;;;;;14.80;59.70;;;13.76;61.25;100502.28;12275939;19;19915;-84
2023/10/24 05:14:31;;;;;;;;;;;14.90;60.10;;;13.78;61.27;100497.78;12277699;19;20353;-83
2023/10/24 05:18:33;;;;;;;;;;;14.90;60.40;;;13.69;61.18;100492.25;12275593;19;20253;-82
2023/10/24 05:22:35;;;;;;;;;;;14.90;59.90;;;13.78;61.10;100489.91;12280755;19;19934;-83
2023/10/24 05:26:37;;;;;;;;;;;14.90;59.80;;;13.76;61.29;100492.63;12264726;19;19945;-82
2023/10/24 05:30:39;;;;;;;;;;;14.90;59.80;;;13.73;61.23;100480.56;12261978;19;20310;-84
2023/10/24 05:34:41;;;;;;;;;;;14.90;59.80;;;13.71;61.23;100468.50;12281845;19;19915;-83
2023/10/24 05:38:43;;;;;;;;;;;14.90;59.80;;;13.81;61.17;100487.03;12282015;19;19911;-84
2023/10/24 05:42:44;;;;;;;;;;;14.90;59.80;;;13.77;61.17;100480.31;12286532;19;19919;-83
2023/10/24 05:46:46;;;;;;;;;;;14.90;59.90;;;13.72;61.31;100460.53;12281665;19;19919;-83
2023/10/24 05:50:48;;;;;;;;;;;14.90;59.90;;;13.65;61.14;100461.06;12274796;19;19934;-82
2023/10/24 05:54:49;;;;;;;;;;;14.90;59.80;;;13.76;61.19;100460.28;12267823;19;19926;-83
2023/10/24 05:58:51;;;;;;;;;;;14.90;59.80;;;13.77;61.26;100472.47;12262359;19;20376;-83
2023/10/24 06:02:53;;;;;;;;;;;14.90;59.80;;;13.69;61.32;100458.13;12267384;19;19930;-83
2023/10/24 06:06:55;;;;;;;;;;;14.90;59.70;;;13.76;61.21;100460.28;12265933;19;19921;-83
2023/10/24 06:10:57;;;;;;;;;;;14.90;59.80;;;13.72;61.35;100457.06;12264710;19;19915;-83
2023/10/24 06:14:59;;;;;;;;;;;14.90;59.80;;;13.79;61.25;100457.44;12258863;19;20320;-82
2023/10/24 06:19:01;;;;;;;;;;;14.90;59.80;;;13.75;61.17;100441.09;12264579;19;20323;-83
2023/10/24 06:23:04;;;;;;;;;;;14.90;59.90;;;13.75;61.16;100427.13;12262274;19;19946;-82
2023/10/24 06:27:06;;;;;;;;;;;14.90;59.90;;;13.68;61.24;100422.31;12277884;19;19911;-85
2023/10/24 06:31:07;;;;;;;;;;;14.90;59.80;;;13.44;61.27;100387.38;12254688;19;19921;-82
2023/10/24 06:35:09;;;;;;;;;;;14.80;60.00;;;13.70;61.21;100399.44;12259398;19;20337;-82
2023/10/24 06:39:11;;;;;;;;;;;14.80;60.10;;;13.70;61.30;100388.94;12258045;19;19920;-82
2023/10/24 06:43:13;;;;;;;;;;;14.80;59.90;;;13.66;61.35;100379.63;12258432;19;19926;-82
2023/10/24 06:47:15;;;;;;;;;;;14.80;60.40;;;13.70;61.25;100391.56;12256848;19;19926;-82
2023/10/24 06:51:16;;;;;;;;;;;14.80;60.20;;;13.66;61.27;100378.78;12252737;19;19918;-82
2023/10/24 06:55:18;;;;;;;;;;;14.80;60.10;;;13.70;61.32;100374.97;12256549;19;19923;-81
2023/10/24 06:59:19;;;;;;;;;;;14.80;60.30;;;13.59;61.33;100356.56;12250179;19;19918;-82
2023/10/24 07:03:21;;;;;;;;;;;14.80;60.80;;;13.68;61.51;100390.81;12252826;19;19922;-83
2023/10/24 07:07:23;;;;;;;;;;;14.80;60.30;;;13.69;61.30;100387.28;12248069;19;19948;-82
2023/10/24 07:11:25;;;;;;;;;;;14.80;60.30;;;13.70;61.30;100377.59;12250248;19;19923;-82
2023/10/24 07:15:26;;;;;;;;;;;14.80;60.60;;;13.52;61.36;100343.06;12252794;19;19915;-83
2023/10/24 07:19:28;;;;;;;;;;;14.80;60.10;;;13.70;61.50;100356.63;12248922;19;19927;-82
2023/10/24 07:23:30;;;;;;;;;;;14.80;60.10;;;13.71;61.32;100363.53;12255096;19;19974;-82
2023/10/24 07:27:33;;;;;;;;;;;14.80;59.90;;;13.75;61.49;100369.41;12247620;19;19958;-82
2023/10/24 07:31:34;;;;;;;;;;;14.80;60.60;;;13.68;61.49;100343.59;12252835;19;19922;-83
2023/10/24 07:35:36;;;;;;;;;;;14.80;60.50;;;13.73;61.44;100354.59;12250566;19;19992;-83
2023/10/24 07:39:37;;;;;;;;;;;14.90;60.60;;;13.79;61.53;100358.53;12250149;19;19922;-83
2023/10/24 07:43:39;;;;;;;;;;;14.90;60.30;;;13.77;61.45;100355.22;12252864;19;19982;-82
2023/10/24 07:47:40;;;;;;;;;;;14.90;60.50;;;13.75;61.46;100354.50;12249357;19;19922;-82
2023/10/24 07:51:42;;;;;;;;;;;14.90;60.20;;;13.84;61.57;100356.41;12246826;19;19923;-82
2023/10/24 07:55:43;;;;;;;;;;;14.90;60.10;;;13.75;61.50;100332.66;12248154;19;19978;-82
2023/10/24 07:59:45;;;;;;;;;;;15.00;60.50;;;13.75;61.50;100328.25;12249661;19;20006;-82
2023/10/24 08:03:47;;;;;;;;;;;15.00;60.50;;;13.83;61.48;100332.94;12246454;19;19919;-82
2023/10/24 08:07:49;;;;;;;;;;;15.00;60.30;;;13.95;61.48;100360.84;12251138;19;20254;-83
2023/10/24 08:11:50;;;;;;;;;;;15.00;60.40;;;13.93;61.52;100349.63;12259203;19;19919;-82
2023/10/24 08:15:53;;;;;;;;;;;15.10;60.40;;;14.00;61.50;100356.09;12251499;19;19933;-82
2023/10/24 08:19:54;;;;;;;;;;;15.10;60.80;;;14.03;61.51;100353.25;12250909;19;19939;-82
2023/10/24 08:23:56;;;;;;;;;;;15.10;60.60;;;14.01;61.55;100338.56;12258619;19;19966;-82
2023/10/24 08:27:58;;;;;;;;;;;15.10;60.80;;;14.09;61.47;100334.38;12253105;19;20483;-82
2023/10/24 08:31:59;;;;;;;;;;;15.20;60.70;;;14.06;61.48;100339.03;12251228;19;19923;-82
2023/10/24 08:36:01;;;;;;;;;;;15.20;60.70;;;14.08;61.61;100351.09;12255923;19;20348;-81
2023/10/24 08:40:03;;;;;;;;;;;15.20;61.00;;;14.09;61.60;100355.38;12258784;19;19947;-82
2023/10/24 08:44:05;;;;;;;;;;;15.30;60.80;;;14.13;61.63;100341.09;12264711;19;19918;-82
2023/10/24 08:48:07;;;;;;;;;;;15.30;60.60;;;14.16;61.58;100332.97;12259694;19;19911;-82
2023/10/24 08:52:08;;;;;;;;;;;15.30;60.60;;;14.23;61.59;100332.50;12264572;19;19948;-82
2023/10/24 08:56:10;;;;;;;;;;;15.30;60.50;;;14.23;61.59;100332.50;12253893;19;19917;-82
2023/10/24 09:00:14;;;;;;;;;;;15.30;60.80;;;14.03;61.51;100303.34;12247381;19;20284;-83
2023/10/24 09:04:17;;;;;;;;;;;15.30;60.60;;;14.20;61.74;100309.09;12256657;19;19911;-82
2023/10/24 09:08:18;;;;;;;;;;;15.40;60.80;;;14.26;61.67;100311.28;12243295;19;19999;-82
2023/10/24 09:12:21;;;;;;;;;;;15.40;61.00;;;14.25;61.67;100299.91;12246829;19;20313;-83
2023/10/24 09:16:22;;;;;;;;;;;15.40;61.10;;;14.26;61.61;100300.78;12247993;19;19915;-83
2023/10/24 09:20:28;;;;;;;;;;;15.40;61.00;;;13.98;61.73;100236.41;12246059;19;19923;-82
2023/10/24 09:24:30;;;;;;;;;;;15.40;60.90;;;14.32;61.76;100290.63;12247132;19;19943;-83
2023/10/24 09:28:35;;;;;;;;;;;15.40;61.00;;;14.24;61.62;100271.16;12245527;19;19930;-83
2023/10/24 09:32:41;;;;;;;;;;;15.50;60.90;;;14.36;61.69;100296.44;12246188;19;20281;-83
2023/10/24 09:36:43;;;;;;;;;;;15.50;60.80;;;14.36;61.75;100294.66;12248246;19;19966;-83
2023/10/24 09:40:45;;;;;;;;;;;15.50;61.00;;;14.39;61.87;100288.31;12245034;19;19919;-83
2023/10/24 09:44:47;;;;;;;;;;;15.50;61.20;;;14.41;61.67;100285.59;12262918;19;19919;-82
2023/10/24 09:48:50;;;;;;;;;;;15.60;61.90;;;14.45;61.79;100290.50;12259059;19;19918;-82
2023/10/24 09:52:52;;;;;;;;;;;15.60;61.50;;;14.39;61.68;100280.44;12253674;19;19986;-82
2023/10/24 09:56:54;;;;;;;;;;;15.60;61.20;;;14.52;61.61;100290.84;12256999;19;19935;-82
2023/10/24 10:00:56;;;;;;;;;;;15.60;61.80;;;14.43;61.71;100283.69;12252996;19;19914;-82
2023/10/24 10:04:58;;;;;;;;;;;15.70;61.20;;;14.43;61.72;100260.88;12255413;19;19921;-82
2023/10/24 10:08:59;;;;;;;;;;;15.70;61.30;;;14.55;61.80;100285.38;12249297;19;19930;-82
2023/10/24 10:13:03;;;;;;;;;;;15.70;61.40;;;14.63;61.64;100292.66;12252418;19;20325;-82
2023/10/24 10:17:18;;;;;;;;;;;15.80;61.20;;;14.63;61.87;100266.38;12251336;19;19956;-82
2023/10/24 10:21:59;;;;;;;;;;;15.80;60.90;;;14.72;61.87;100263.03;12252815;19;19979;-82
2023/10/24 10:26:06;;;;;;;;;;;15.80;61.20;;;14.75;61.92;100260.16;12257743;19;19926;-82
2023/10/24 10:30:19;;;;;;;;;;;15.90;61.20;;;14.77;62.01;100245.06;12257901;19;19922;-84
2023/10/24 10:34:35;;;;;;;;;;;15.90;61.50;;;14.74;61.81;100232.19;12278202;19;19919;-84
2023/10/24 10:38:44;;;;;;;;;;;15.90;61.50;;;14.84;61.85;100235.72;12273188;19;21258;-84
2023/10/24 10:42:50;;;;;;;;;;;16.00;61.40;;;14.86;61.98;100225.94;12281393;19;19906;-83
2023/10/24 10:47:02;;;;;;;;;;;16.00;61.40;;;14.87;61.88;100226.78;12276547;19;19918;-83
2023/10/24 10:51:04;;;;;;;;;;;16.00;61.20;;;14.89;62.01;100225.69;12276794;19;19914;-83
2023/10/24 10:55:43;;;;;;;;;;;16.10;61.50;;;15.01;61.99;100235.22;12278079;19;20320;-83
2023/10/24 10:59:57;;;;;;;;;;;16.10;61.90;;;15.08;62.07;100234.72;12278288;19;19915;-84
2023/10/24 11:03:59;;;;;;;;;;;16.20;61.80;;;15.06;62.10;100232.19;12281528;19;19923;-84
2023/10/24 11:08:02;;;;;;;;;;;16.20;61.80;;;15.16;62.07;100224.38;12267697;19;19919;-83
2023/10/24 11:12:26;;;;;;;;;;;16.30;61.90;;;15.24;62.04;100230.69;12278845;19;19923;-83
2023/10/24 11:16:30;;;;;;;;;;;16.30;61.80;;;15.30;62.10;100225.88;12276368;19;19932;-83
2023/10/24 11:20:31;;;;;;;;;;;16.40;61.70;;;15.23;61.98;100196.63;12271465;19;19922;-83
2023/10/24 11:24:32;;;;;;;;;;;16.50;62.30;;;15.33;61.88;100207.19;12284905;19;19919;-85
2023/10/24 11:28:34;;;;;;;;;;;16.60;61.60;;;15.39;62.04;100206.69;12284088;19;19910;-84
2023/10/24 11:32:35;;;;;;;;;;;16.60;61.60;;;15.51;62.21;100215.34;12279703;19;19926;-83
2023/10/24 11:36:40;;;;;;;;;;;16.70;61.60;;;15.51;62.08;100200.41;12278137;19;19955;-83
2023/10/24 11:40:45;;;;;;;;;;;16.70;61.40;;;15.51;62.00;100194.31;12276234;19;19922;-83
2023/10/24 11:44:47;;;;;;;;;;;16.70;61.80;;;15.61;62.14;100196.03;12279499;19;20304;-84
2023/10/24 11:48:49;;;;;;;;;;;16.80;62.40;;;15.65;62.05;100184.25;12277842;19;19919;-83
2023/10/24 11:52:50;;;;;;;;;;;16.80;61.80;;;15.60;61.86;100170.66;12276928;19;19910;-83
2023/10/24 11:56:55;;;;;;;;;;;16.90;61.70;;;15.63;61.88;100165.13;12277916;19;19911;-83
2023/10/24 12:00:58;;;;;;;;;;;16.90;61.70;;;15.75;62.09;100183.53;12273237;19;19929;-84
2023/10/24 12:05:01;;;;;;;;;;;17.00;61.60;;;15.79;62.10;100182.28;12276485;19;19919;-84
2023/10/24 12:09:02;;;;;;;;;;;17.00;61.60;;;15.84;62.04;100190.63;12266797;19;19922;-84
2023/10/24 12:13:03;;;;;;;;;;;17.00;61.30;;;15.78;62.01;100176.19;12267594;19;20272;-84
2023/10/24 12:17:07;;;;;;;;;;;17.00;61.40;;;15.82;62.04;100179.38;12269318;19;19938;-83
2023/10/24 12:21:12;;;;;;;;;;;17.10;61.40;;;15.87;62.01;100175.38;12267524;19;19961;-82
2023/10/24 12:25:16;;;;;;;;;;;17.10;61.30;;;15.97;62.00;100182.50;12274689;19;19918;-85
2023/10/24 12:29:17;;;;;;;;;;;17.10;61.30;;;16.01;61.98;100181.25;12274496;19;19911;-84
2023/10/24 12:33:19;;;;;;;;;;;17.10;61.30;;;15.98;61.84;100171.00;12277347;19;19930;-83
2023/10/24 12:37:21;;;;;;;;;;;17.20;61.50;;;15.98;61.99;100165.72;12281819;19;19922;-84
2023/10/24 12:41:22;;;;;;;;;;;17.20;61.40;;;16.04;62.07;100157.28;12276438;19;19927;-84
2023/10/24 12:45:24;;;;;;;;;;;17.20;61.50;;;16.09;62.03;100152.44;12270663;19;19923;-83
2023/10/24 12:49:26;;;;;;;;;;;17.30;61.40;;;15.97;61.97;100128.03;12260873;19;19918;-84
2023/10/24 12:53:28;;;;;;;;;;;17.30;61.50;;;16.00;62.21;100140.09;12249719;19;19918;-83
2023/10/24 12:57:29;;;;;;;;;;;17.30;61.50;;;16.09;62.04;100148.03;12250672;19;19923;-83
2023/10/24 13:01:32;;;;;;;;;;;17.30;61.50;;;16.11;62.00;100147.88;12261800;19;19921;-84
2023/10/24 13:05:34;;;;;;;;;;;17.40;61.70;;;16.22;62.12;100157.47;12270603;19;19923;-83
2023/10/24 13:09:37;;;;;;;;;;;17.40;61.80;;;16.20;62.12;100143.59;12262143;19;19929;-83
2023/10/24 13:13:38;;;;;;;;;;;17.40;61.60;;;16.28;62.13;100149.03;12265862;19;19907;-83
2023/10/24 13:17:40;;;;;;;;;;;17.40;61.80;;;16.30;62.10;100145.28;12269914;19;20276;-83
2023/10/24 13:21:41;;;;;;;;;;;17.50;61.80;;;16.30;62.06;100136.56;12280447;19;19930;-83
2023/10/24 13:25:43;;;;;;;;;;;17.50;61.90;;;16.39;62.22;100138.41;12274842;19;20620;-82
2023/10/24 13:29:44;;;;;;;;;;;17.50;62.00;;;16.31;62.13;100114.50;12273873;19;20337;-83
2023/10/24 13:33:49;;;;;;;;;;;17.50;62.60;;;16.43;62.19;100123.13;12277120;19;20337;-82
2023/10/24 13:37:51;;;;;;;;;;;17.50;61.80;;;16.45;62.21;100105.38;12280677;19;19941;-83
2023/10/24 13:41:52;;;;;;;;;;;17.60;62.00;;;16.47;61.95;100100.78;12283682;19;20435;-83
2023/10/24 13:45:54;;;;;;;;;;;17.60;62.00;;;16.41;61.98;100082.91;12284800;19;19934;-83
2023/10/24 13:49:56;;;;;;;;;;;17.60;62.00;;;16.50;62.01;100092.59;12273589;19;19918;-83
2023/10/24 13:53:57;;;;;;;;;;;17.60;61.90;;;16.47;61.93;100088.47;12280245;19;19942;-84
2023/10/24 13:57:58;;;;;;;;;;;17.60;61.90;;;16.47;61.79;100090.25;12286660;19;19926;-83
2023/10/24 14:02:00;;;;;;;;;;;17.60;61.80;;;16.52;61.94;100085.41;12284673;19;19914;-83
2023/10/24 14:06:02;;;;;;;;;;;17.60;61.80;;;16.40;62.19;100057.53;12288640;19;19919;-85
2023/10/24 14:10:04;;;;;;;;;;;17.60;61.80;;;16.42;62.04;100069.59;12285080;19;19927;-83
2023/10/24 14:14:06;;;;;;;;;;;17.60;61.70;;;16.52;61.92;100075.69;12284710;19;19922;-83
2023/10/24 14:18:07;;;;;;;;;;;17.60;61.60;;;16.51;61.98;100054.75;12283991;19;20358;-83
2023/10/24 14:22:10;;;;;;;;;;;17.60;61.70;;;16.35;61.88;100021.88;12283838;19;19943;-85
2023/10/24 14:26:12;;;;;;;;;;;17.70;61.80;;;16.47;61.91;100035.75;12285180;19;19919;-83
2023/10/24 14:30:14;;;;;;;;;;;17.70;61.80;;;16.51;61.90;100052.94;12280422;19;19925;-84
2023/10/24 14:34:15;;;;;;;;;;;17.70;61.80;;;16.55;61.87;100054.34;12281971;19;19915;-84
2023/10/24 14:38:17;;;;;;;;;;;17.70;61.70;;;16.49;61.85;100046.16;12284949;19;19911;-84
2023/10/24 14:42:18;;;;;;;;;;;17.70;61.70;;;16.48;62.11;100047.13;12285133;19;19919;-85
2023/10/24 14:46:20;;;;;;;;;;;17.70;61.70;;;16.50;62.10;100053.06;12255501;19;19919;-91
2023/10/24 14:50:22;;;;;;;;;;;17.60;61.70;;;16.31;61.93;100038.94;12247493;19;20262;-88
2023/10/24 14:54:23;;;;;;;;;;;17.70;61.70;;;16.45;61.83;100057.94;12250026;19;19915;-89
2023/10/24 14:58:25;;;;;;;;;;;17.70;61.80;;;16.45;62.16;100063.22;12247897;19;19918;-89
2023/10/24 15:02:27;;;;;;;;;;;17.70;61.70;;;16.53;61.87;100079.16;12243649;19;20364;-89
2023/10/24 15:06:29;;;;;;;;;;;17.70;61.70;;;16.55;62.03;100080.69;12241565;19;19915;-89
2023/10/24 15:10:30;;;;;;;;;;;17.70;61.80;;;16.49;61.90;100054.88;12247097;19;19919;-90
2023/10/24 15:14:32;;;;;;;;;;;17.70;61.80;;;16.53;62.06;100072.09;12248503;19;19923;-90
2023/10/24 15:18:33;;;;;;;;;;;17.70;61.90;;;16.60;62.19;100083.72;12248862;19;19911;-90
2023/10/24 15:22:35;;;;;;;;;;;17.70;61.70;;;16.49;62.07;100075.13;12247478;19;19951;-89
2023/10/24 15:26:37;;;;;;;;;;;17.70;61.50;;;16.51;61.98;100076.66;12248971;19;19926;-90
2023/10/24 15:30:42;;;;;;;;;;;17.70;61.50;;;16.46;61.91;100078.06;12244267;19;20019;-89
2023/10/24 15:34:43;;;;;;;;;;;17.70;61.50;;;16.52;61.93;100080.94;12249733;19;19938;-89
2023/10/24 15:38:44;;;;;;;;;;;17.70;61.60;;;16.48;62.02;100073.47;12247561;19;20367;-89
2023/10/24 15:42:46;;;;;;;;;;;17.60;61.70;;;16.27;62.00;100039.34;12246424;19;19934;-89
2023/10/24 15:46:49;;;;;;;;;;;17.60;61.70;;;16.44;61.89;100074.72;12245111;19;19923;-89
2023/10/24 15:50:58;;;;;;;;;;;17.60;61.70;;;16.11;61.98;100017.00;12245080;19;19915;-89
2023/10/24 15:55:00;;;;;;;;;;;17.60;61.70;;;16.50;61.77;100085.56;12246897;19;19930;-89
2023/10/24 15:59:02;;;;;;;;;;;17.60;61.70;;;16.38;61.98;100071.66;12247439;19;19914;-88
2023/10/24 16:03:04;;;;;;;;;;;17.60;61.60;;;16.48;62.03;100084.03;12247030;19;19961;-88
2023/10/24 16:07:05;;;;;;;;;;;17.50;61.50;;;16.30;61.83;100066.25;12246080;19;19915;-88
2023/10/24 16:11:06;;;;;;;;;;;17.50;61.60;;;16.34;62.01;100082.63;12243069;19;19923;-88
2023/10/24 16:15:11;;;;;;;;;;;17.50;61.60;;;16.45;62.12;100100.94;12242334;19;20594;-88
2023/10/24 16:19:12;;;;;;;;;;;17.50;61.60;;;16.45;61.88;100100.13;12244713;19;19960;-88
2023/10/24 16:23:15;;;;;;;;;;;17.50;61.60;;;16.43;61.97;100092.34;12246258;19;20250;-88
2023/10/24 16:27:17;;;;;;;;;;;17.50;61.60;;;16.44;62.00;100099.25;12246408;19;20254;-88
2023/10/24 16:31:19;;;;;;;;;;;17.50;61.60;;;16.31;61.91;100078.47;12242130;19;19941;-89
2023/10/24 16:35:20;;;;;;;;;;;17.50;61.50;;;16.38;61.89;100090.09;12242514;19;19915;-89
2023/10/24 16:39:22;;;;;;;;;;;17.50;61.60;;;16.20;62.06;100057.50;12244936;19;20254;-89
2023/10/24 16:43:25;;;;;;;;;;;17.40;61.80;;;16.32;62.18;100088.03;12245671;19;19915;-89
2023/10/24 16:47:26;;;;;;;;;;;17.50;61.60;;;16.16;62.06;100050.84;12235598;19;19926;-88
2023/10/24 16:51:27;;;;;;;;;;;17.40;61.60;;;16.30;62.07;100068.88;12246627;19;19914;-87
2023/10/24 16:55:30;;;;;;;;;;;17.40;61.50;;;16.34;61.93;100067.66;12256275;19;20344;-89
2023/10/24 16:59:31;;;;;;;;;;;17.40;61.50;;;16.26;61.81;100046.44;12257252;19;19923;-89
2023/10/24 17:03:33;;;;;;;;;;;17.40;61.60;;;16.29;62.11;100048.78;12259338;19;20292;-89
2023/10/24 17:07:40;;;;;;;;;;;17.40;61.60;;;16.22;62.05;100031.84;12255053;19;19929;-90
2023/10/24 17:11:42;;;;;;;;;;;17.40;61.50;;;16.28;61.84;100044.50;12256834;19;19922;-87
2023/10/24 17:15:43;;;;;;;;;;;17.40;61.50;;;16.26;61.92;100049.06;12254715;19;20003;-89
2023/10/24 17:19:45;;;;;;;;;;;17.40;61.60;;;16.31;61.90;100051.25;12253134;19;19915;-90
2023/10/24 17:23:46;;;;;;;;;;;17.40;61.40;;;15.99;61.83;99990.97;12255222;19;19926;-89
2023/10/24 17:27:48;;;;;;;;;;;17.40;61.40;;;16.21;61.95;100021.47;12253749;19;19949;-90
2023/10/24 17:31:50;;;;;;;;;;;17.30;61.50;;;16.15;62.00;100017.59;12252804;19;19922;-89
2023/10/24 17:35:51;;;;;;;;;;;17.30;61.50;;;16.23;61.91;100017.72;12255196;19;19923;-89
2023/10/24 17:39:53;;;;;;;;;;;17.30;61.60;;;15.95;61.86;99977.22;12250635;19;20329;-90
2023/10/24 17:43:55;;;;;;;;;;;17.30;61.50;;;16.15;62.10;100001.78;12255190;19;19930;-89
2023/10/24 17:47:56;;;;;;;;;;;17.20;61.60;;;16.16;61.88;100011.34;12250850;19;20341;-89
2023/10/24 17:51:58;;;;;;;;;;;17.20;61.50;;;16.18;62.05;100004.13;12254626;19;20261;-89
2023/10/24 17:56:06;;;;;;;;;;;17.20;61.80;;;15.95;61.99;99961.41;12252683;19;19919;-86
2023/10/24 18:00:08;;;;;;;;;;;17.20;61.70;;;16.11;61.78;99988.03;12252809;19;19934;-89
2023/10/24 18:04:09;;;;;;;;;;;17.10;61.50;;;16.03;61.82;99981.81;12249462;19;19919;-88
2023/10/24 18:08:11;;;;;;;;;;;17.10;61.60;;;15.96;61.90;99959.63;12251257;19;20034;-88
2023/10/24 18:12:12;;;;;;;;;;;17.10;61.60;;;16.09;61.90;99978.59;12254464;19;19950;-89